sensor_id;sensor_type;location;lat;lon;timestamp;temperature;humidity
41220;DHT22;26951;47.338;9.196;2023-11-18T00:00:33;4.00;74.90
41220;DHT22;26951;47.338;9.196;2023-11-18T00:03:17;4.00;74.50
41220;DHT22;26951;47.338;9.196;2023-11-18T00:06:01;4.00;74.30
41220;DHT22;26951;47.338;9.196;2023-11-18T00:08:45;4.00;74.30
41220;DHT22;26951;47.338;9.196;2023-11-18T00:11:29;4.00;73.80
41220;DHT22;26951;47.338;9.196;2023-11-18T00:14:13;4.00;74.30
41220;DHT22;26951;47.338;9.196;2023-11-18T00:16:58;4.00;74.50
41220;DHT22;26951;47.338;9.196;2023-11-18T00:19:43;4.00;74.30
41220;DHT22;26951;47.338;9.196;2023-11-18T00:22:28;3.90;73.60
41220;DHT22;26951;47.338;9.196;2023-11-18T00:25:12;3.90;73.40
41220;DHT22;26951;47.338;9.196;2023-11-18T00:27:58;3.90;73.50
41220;DHT22;26951;47.338;9.196;2023-11-18T00:30:42;3.90;73.80
41220;DHT22;26951;47.338;9.196;2023-11-18T00:33:26;3.90;74.30
41220;DHT22;26951;47.338;9.196;2023-11-18T00:36:11;3.90;74.80
41220;DHT22;26951;47.338;9.196;2023-11-18T00:38:55;4.00;74.90
41220;DHT22;26951;47.338;9.196;2023-11-18T00:41:39;3.90;74.50
41220;DHT22;26951;47.338;9.196;2023-11-18T00:44:23;3.90;74.50
41220;DHT22;26951;47.338;9.196;2023-11-18T00:47:07;3.90;73.90
41220;DHT22;26951;47.338;9.196;2023-11-18T00:49:52;3.90;73.80
41220;DHT22;26951;47.338;9.196;2023-11-18T00:52:37;3.90;73.80
41220;DHT22;26951;47.338;9.196;2023-11-18T00:55:25;3.90;73.70
41220;DHT22;26951;47.338;9.196;2023-11-18T00:58:09;3.90;73.80
41220;DHT22;26951;47.338;9.196;2023-11-18T01:00:53;3.90;73.70
41220;DHT22;26951;47.338;9.196;2023-11-18T01:03:37;3.90;73.50
41220;DHT22;26951;47.338;9.196;2023-11-18T01:06:22;3.90;73.40
41220;DHT22;26951;47.338;9.196;2023-11-18T01:09:07;3.90;73.50
41220;DHT22;26951;47.338;9.196;2023-11-18T01:11:53;3.80;73.60
41220;DHT22;26951;47.338;9.196;2023-11-18T01:14:39;3.80;73.80
41220;DHT22;26951;47.338;9.196;2023-11-18T01:17:23;3.80;73.80
41220;DHT22;26951;47.338;9.196;2023-11-18T01:20:08;3.80;74.00
41220;DHT22;26951;47.338;9.196;2023-11-18T01:22:55;3.80;74.20
41220;DHT22;26951;47.338;9.196;2023-11-18T01:25:39;3.80;74.20
41220;DHT22;26951;47.338;9.196;2023-11-18T01:28:24;3.80;74.20
41220;DHT22;26951;47.338;9.196;2023-11-18T01:31:10;3.80;74.20
41220;DHT22;26951;47.338;9.196;2023-11-18T01:33:55;3.80;74.00
41220;DHT22;26951;47.338;9.196;2023-11-18T01:36:40;3.80;73.60
41220;DHT22;26951;47.338;9.196;2023-11-18T01:39:24;3.80;73.20
41220;DHT22;26951;47.338;9.196;2023-11-18T01:42:09;3.70;73.50
41220;DHT22;26951;47.338;9.196;2023-11-18T01:44:53;3.70;73.50
41220;DHT22;26951;47.338;9.196;2023-11-18T01:47:39;3.70;72.70
41220;DHT22;26951;47.338;9.196;2023-11-18T01:50:24;3.70;72.80
41220;DHT22;26951;47.338;9.196;2023-11-18T01:53:09;3.70;71.10
41220;DHT22;26951;47.338;9.196;2023-11-18T01:55:54;3.70;71.80
41220;DHT22;26951;47.338;9.196;2023-11-18T01:58:39;3.60;72.00
41220;DHT22;26951;47.338;9.196;2023-11-18T02:04:51;3.60;71.90
41220;DHT22;26951;47.338;9.196;2023-11-18T02:07:36;3.60;71.20
41220;DHT22;26951;47.338;9.196;2023-11-18T02:10:21;3.50;71.20
41220;DHT22;26951;47.338;9.196;2023-11-18T02:13:29;3.50;70.50
41220;DHT22;26951;47.338;9.196;2023-11-18T02:16:16;3.40;71.30
41220;DHT22;26951;47.338;9.196;2023-11-18T02:19:03;3.40;70.90
41220;DHT22;26951;47.338;9.196;2023-11-18T02:21:51;3.30;70.70
41220;DHT22;26951;47.338;9.196;2023-11-18T02:24:38;3.30;70.40
41220;DHT22;26951;47.338;9.196;2023-11-18T02:27:24;3.30;70.20
41220;DHT22;26951;47.338;9.196;2023-11-18T02:30:12;3.30;70.70
41220;DHT22;26951;47.338;9.196;2023-11-18T02:36:20;3.10;71.90
41220;DHT22;26951;47.338;9.196;2023-11-18T02:39:12;3.10;72.40
41220;DHT22;26951;47.338;9.196;2023-11-18T02:42:01;3.10;72.40
41220;DHT22;26951;47.338;9.196;2023-11-18T02:44:48;3.10;72.60
41220;DHT22;26951;47.338;9.196;2023-11-18T02:47:34;3.20;72.40
41220;DHT22;26951;47.338;9.196;2023-11-18T02:50:18;3.10;72.10
41220;DHT22;26951;47.338;9.196;2023-11-18T02:53:03;3.10;72.50
41220;DHT22;26951;47.338;9.196;2023-11-18T02:55:47;3.10;72.80
41220;DHT22;26951;47.338;9.196;2023-11-18T02:58:32;3.10;72.70
41220;DHT22;26951;47.338;9.196;2023-11-18T03:01:17;3.10;72.00
41220;DHT22;26951;47.338;9.196;2023-11-18T03:04:03;3.10;71.30
41220;DHT22;26951;47.338;9.196;2023-11-18T03:06:49;3.00;71.10
41220;DHT22;26951;47.338;9.196;2023-11-18T03:09:34;3.00;71.40
41220;DHT22;26951;47.338;9.196;2023-11-18T03:12:18;2.80;71.40
41220;DHT22;26951;47.338;9.196;2023-11-18T03:15:04;2.70;71.60
41220;DHT22;26951;47.338;9.196;2023-11-18T03:17:49;2.70;71.90
41220;DHT22;26951;47.338;9.196;2023-11-18T03:20:34;2.70;71.40
41220;DHT22;26951;47.338;9.196;2023-11-18T03:23:18;2.70;70.90
41220;DHT22;26951;47.338;9.196;2023-11-18T03:26:02;2.70;70.00
41220;DHT22;26951;47.338;9.196;2023-11-18T03:28:46;2.70;69.40
41220;DHT22;26951;47.338;9.196;2023-11-18T03:31:30;2.70;69.10
41220;DHT22;26951;47.338;9.196;2023-11-18T03:34:16;2.50;68.90
41220;DHT22;26951;47.338;9.196;2023-11-18T03:37:00;2.50;68.90
41220;DHT22;26951;47.338;9.196;2023-11-18T03:39:45;2.50;68.30
41220;DHT22;26951;47.338;9.196;2023-11-18T03:42:29;2.50;68.80
41220;DHT22;26951;47.338;9.196;2023-11-18T03:45:15;2.40;68.50
41220;DHT22;26951;47.338;9.196;2023-11-18T03:48:01;2.40;68.00
41220;DHT22;26951;47.338;9.196;2023-11-18T03:50:45;2.40;67.50
41220;DHT22;26951;47.338;9.196;2023-11-18T03:53:29;2.30;67.80
41220;DHT22;26951;47.338;9.196;2023-11-18T03:56:17;2.20;67.30
41220;DHT22;26951;47.338;9.196;2023-11-18T03:59:02;2.10;68.50
41220;DHT22;26951;47.338;9.196;2023-11-18T04:01:48;2.10;68.30
41220;DHT22;26951;47.338;9.196;2023-11-18T04:04:34;2.10;68.40
41220;DHT22;26951;47.338;9.196;2023-11-18T04:07:18;2.10;68.50
41220;DHT22;26951;47.338;9.196;2023-11-18T04:10:02;2.00;68.50
41220;DHT22;26951;47.338;9.196;2023-11-18T04:12:49;2.00;68.50
41220;DHT22;26951;47.338;9.196;2023-11-18T04:15:33;2.00;68.30
41220;DHT22;26951;47.338;9.196;2023-11-18T04:18:19;1.90;67.60
41220;DHT22;26951;47.338;9.196;2023-11-18T04:21:03;1.80;68.40
41220;DHT22;26951;47.338;9.196;2023-11-18T04:23:48;1.60;71.10
41220;DHT22;26951;47.338;9.196;2023-11-18T04:26:32;1.40;73.20
41220;DHT22;26951;47.338;9.196;2023-11-18T04:29:16;1.40;73.50
41220;DHT22;26951;47.338;9.196;2023-11-18T04:32:01;1.40;72.80
41220;DHT22;26951;47.338;9.196;2023-11-18T04:34:46;1.50;72.30
41220;DHT22;26951;47.338;9.196;2023-11-18T04:37:30;1.50;72.10
41220;DHT22;26951;47.338;9.196;2023-11-18T04:40:14;1.40;72.60
41220;DHT22;26951;47.338;9.196;2023-11-18T04:42:59;1.30;72.60
41220;DHT22;26951;47.338;9.196;2023-11-18T04:45:44;1.40;72.70
41220;DHT22;26951;47.338;9.196;2023-11-18T04:48:28;1.20;74.30
41220;DHT22;26951;47.338;9.196;2023-11-18T04:51:12;1.30;74.00
41220;DHT22;26951;47.338;9.196;2023-11-18T04:53:56;1.30;73.50
41220;DHT22;26951;47.338;9.196;2023-11-18T04:56:41;1.30;72.70
41220;DHT22;26951;47.338;9.196;2023-11-18T04:59:26;1.30;72.00
41220;DHT22;26951;47.338;9.196;2023-11-18T05:02:09;1.30;71.70
41220;DHT22;26951;47.338;9.196;2023-11-18T05:04:53;1.30;70.80
41220;DHT22;26951;47.338;9.196;2023-11-18T05:07:39;1.30;70.90
41220;DHT22;26951;47.338;9.196;2023-11-18T05:10:24;1.30;70.30
41220;DHT22;26951;47.338;9.196;2023-11-18T05:13:08;1.30;69.80
41220;DHT22;26951;47.338;9.196;2023-11-18T05:15:53;1.20;69.80
41220;DHT22;26951;47.338;9.196;2023-11-18T05:18:38;1.20;70.00
41220;DHT22;26951;47.338;9.196;2023-11-18T05:21:22;1.20;69.60
41220;DHT22;26951;47.338;9.196;2023-11-18T05:24:08;1.20;69.80
41220;DHT22;26951;47.338;9.196;2023-11-18T05:26:52;1.00;70.50
41220;DHT22;26951;47.338;9.196;2023-11-18T05:29:36;0.80;74.40
41220;DHT22;26951;47.338;9.196;2023-11-18T05:32:21;0.60;76.90
41220;DHT22;26951;47.338;9.196;2023-11-18T05:35:07;0.70;76.00
41220;DHT22;26951;47.338;9.196;2023-11-18T05:37:51;0.70;75.90
41220;DHT22;26951;47.338;9.196;2023-11-18T05:40:35;0.80;74.90
41220;DHT22;26951;47.338;9.196;2023-11-18T05:43:29;0.80;73.90
41220;DHT22;26951;47.338;9.196;2023-11-18T05:46:19;0.70;76.30
41220;DHT22;26951;47.338;9.196;2023-11-18T05:49:08;0.70;74.50
41220;DHT22;26951;47.338;9.196;2023-11-18T05:51:52;0.80;73.10
41220;DHT22;26951;47.338;9.196;2023-11-18T05:54:36;0.80;72.20
41220;DHT22;26951;47.338;9.196;2023-11-18T05:57:20;0.60;72.90
41220;DHT22;26951;47.338;9.196;2023-11-18T06:00:06;0.60;75.70
41220;DHT22;26951;47.338;9.196;2023-11-18T06:02:50;0.50;76.30
41220;DHT22;26951;47.338;9.196;2023-11-18T06:05:35;0.50;76.30
41220;DHT22;26951;47.338;9.196;2023-11-18T06:08:19;0.60;75.80
41220;DHT22;26951;47.338;9.196;2023-11-18T06:11:06;0.50;75.40
41220;DHT22;26951;47.338;9.196;2023-11-18T06:13:56;0.40;76.60
41220;DHT22;26951;47.338;9.196;2023-11-18T06:16:40;0.30;79.10
41220;DHT22;26951;47.338;9.196;2023-11-18T06:19:24;0.20;80.80
41220;DHT22;26951;47.338;9.196;2023-11-18T06:22:09;0.30;80.20
41220;DHT22;26951;47.338;9.196;2023-11-18T06:24:54;0.30;80.10
41220;DHT22;26951;47.338;9.196;2023-11-18T06:27:38;0.40;77.80
41220;DHT22;26951;47.338;9.196;2023-11-18T06:30:23;0.60;76.40
41220;DHT22;26951;47.338;9.196;2023-11-18T06:33:07;0.60;75.60
41220;DHT22;26951;47.338;9.196;2023-11-18T06:35:51;0.70;74.60
41220;DHT22;26951;47.338;9.196;2023-11-18T06:38:37;0.70;73.70
41220;DHT22;26951;47.338;9.196;2023-11-18T06:41:22;0.70;73.30
41220;DHT22;26951;47.338;9.196;2023-11-18T06:44:08;0.80;73.00
41220;DHT22;26951;47.338;9.196;2023-11-18T06:46:56;0.70;73.20
41220;DHT22;26951;47.338;9.196;2023-11-18T06:49:40;0.70;73.60
41220;DHT22;26951;47.338;9.196;2023-11-18T06:52:25;0.80;73.10
41220;DHT22;26951;47.338;9.196;2023-11-18T06:55:10;0.80;72.50
41220;DHT22;26951;47.338;9.196;2023-11-18T06:57:55;0.80;73.40
41220;DHT22;26951;47.338;9.196;2023-11-18T07:00:40;0.80;72.90
41220;DHT22;26951;47.338;9.196;2023-11-18T07:03:24;0.70;74.10
41220;DHT22;26951;47.338;9.196;2023-11-18T07:06:08;0.70;75.70
41220;DHT22;26951;47.338;9.196;2023-11-18T07:08:54;0.80;75.40
41220;DHT22;26951;47.338;9.196;2023-11-18T07:11:44;0.80;74.30
41220;DHT22;26951;47.338;9.196;2023-11-18T07:14:30;0.80;75.30
41220;DHT22;26951;47.338;9.196;2023-11-18T07:17:14;0.80;75.30
41220;DHT22;26951;47.338;9.196;2023-11-18T07:19:58;0.80;76.00
41220;DHT22;26951;47.338;9.196;2023-11-18T07:22:42;0.90;76.00
41220;DHT22;26951;47.338;9.196;2023-11-18T07:25:26;0.90;76.40
41220;DHT22;26951;47.338;9.196;2023-11-18T07:28:12;1.00;76.20
41220;DHT22;26951;47.338;9.196;2023-11-18T07:30:59;1.00;76.80
41220;DHT22;26951;47.338;9.196;2023-11-18T07:33:43;1.10;76.90
41220;DHT22;26951;47.338;9.196;2023-11-18T07:36:29;1.10;77.40
41220;DHT22;26951;47.338;9.196;2023-11-18T07:39:13;1.20;77.80
41220;DHT22;26951;47.338;9.196;2023-11-18T07:42:08;1.20;78.00
41220;DHT22;26951;47.338;9.196;2023-11-18T07:44:53;1.30;77.90
41220;DHT22;26951;47.338;9.196;2023-11-18T07:47:38;1.40;77.50
41220;DHT22;26951;47.338;9.196;2023-11-18T07:50:23;1.40;77.20
41220;DHT22;26951;47.338;9.196;2023-11-18T07:53:09;1.50;77.20
41220;DHT22;26951;47.338;9.196;2023-11-18T07:55:53;1.60;77.10
41220;DHT22;26951;47.338;9.196;2023-11-18T07:58:38;1.60;77.30
41220;DHT22;26951;47.338;9.196;2023-11-18T08:01:22;1.70;77.40
41220;DHT22;26951;47.338;9.196;2023-11-18T08:04:06;1.80;77.50
41220;DHT22;26951;47.338;9.196;2023-11-18T08:06:51;1.80;77.80
41220;DHT22;26951;47.338;9.196;2023-11-18T08:09:35;1.90;78.00
41220;DHT22;26951;47.338;9.196;2023-11-18T08:12:22;1.90;78.10
41220;DHT22;26951;47.338;9.196;2023-11-18T08:15:07;2.00;78.70
41220;DHT22;26951;47.338;9.196;2023-11-18T08:17:51;2.10;79.00
41220;DHT22;26951;47.338;9.196;2023-11-18T08:20:35;2.10;79.20
41220;DHT22;26951;47.338;9.196;2023-11-18T08:23:19;2.20;79.40
41220;DHT22;26951;47.338;9.196;2023-11-18T08:26:04;2.30;79.40
41220;DHT22;26951;47.338;9.196;2023-11-18T08:28:49;2.40;80.10
41220;DHT22;26951;47.338;9.196;2023-11-18T08:31:33;2.50;80.80
41220;DHT22;26951;47.338;9.196;2023-11-18T08:34:18;2.50;81.20
41220;DHT22;26951;47.338;9.196;2023-11-18T08:37:03;2.60;81.70
41220;DHT22;26951;47.338;9.196;2023-11-18T08:39:47;2.80;81.90
41220;DHT22;26951;47.338;9.196;2023-11-18T08:42:32;2.90;81.70
41220;DHT22;26951;47.338;9.196;2023-11-18T08:48:04;3.10;83.70
41220;DHT22;26951;47.338;9.196;2023-11-18T08:50:51;3.30;85.00
41220;DHT22;26951;47.338;9.196;2023-11-18T08:53:35;3.40;85.90
41220;DHT22;26951;47.338;9.196;2023-11-18T08:56:24;3.60;86.80
41220;DHT22;26951;47.338;9.196;2023-11-18T08:59:19;3.80;87.30
41220;DHT22;26951;47.338;9.196;2023-11-18T09:02:08;4.00;88.00
41220;DHT22;26951;47.338;9.196;2023-11-18T09:04:59;4.10;88.60
41220;DHT22;26951;47.338;9.196;2023-11-18T09:07:43;4.30;88.70
41220;DHT22;26951;47.338;9.196;2023-11-18T09:10:32;4.50;88.90
41220;DHT22;26951;47.338;9.196;2023-11-18T09:13:18;4.60;89.00
41220;DHT22;26951;47.338;9.196;2023-11-18T09:16:05;4.80;88.70
41220;DHT22;26951;47.338;9.196;2023-11-18T09:18:55;5.00;88.70
41220;DHT22;26951;47.338;9.196;2023-11-18T09:21:43;5.10;88.60
41220;DHT22;26951;47.338;9.196;2023-11-18T09:24:28;5.30;88.60
41220;DHT22;26951;47.338;9.196;2023-11-18T09:27:14;5.60;88.20
41220;DHT22;26951;47.338;9.196;2023-11-18T09:29:58;5.80;88.20
41220;DHT22;26951;47.338;9.196;2023-11-18T09:32:44;6.00;86.90
41220;DHT22;26951;47.338;9.196;2023-11-18T09:35:31;6.10;85.50
41220;DHT22;26951;47.338;9.196;2023-11-18T09:38:18;6.20;84.50
41220;DHT22;26951;47.338;9.196;2023-11-18T09:41:04;6.30;82.20
41220;DHT22;26951;47.338;9.196;2023-11-18T09:43:50;6.40;81.10
41220;DHT22;26951;47.338;9.196;2023-11-18T09:46:41;6.40;80.10
41220;DHT22;26951;47.338;9.196;2023-11-18T09:49:32;6.50;78.80
41220;DHT22;26951;47.338;9.196;2023-11-18T09:52:23;6.50;77.20
41220;DHT22;26951;47.338;9.196;2023-11-18T09:55:16;6.70;75.00
41220;DHT22;26951;47.338;9.196;2023-11-18T09:58:04;6.70;70.30
41220;DHT22;26951;47.338;9.196;2023-11-18T10:00:57;6.80;68.40
41220;DHT22;26951;47.338;9.196;2023-11-18T10:03:42;6.80;68.10
41220;DHT22;26951;47.338;9.196;2023-11-18T10:06:29;6.80;67.10
41220;DHT22;26951;47.338;9.196;2023-11-18T10:09:17;6.90;63.40
41220;DHT22;26951;47.338;9.196;2023-11-18T10:12:09;6.90;62.50
41220;DHT22;26951;47.338;9.196;2023-11-18T10:14:56;7.00;59.80
41220;DHT22;26951;47.338;9.196;2023-11-18T10:17:43;7.00;63.40
41220;DHT22;26951;47.338;9.196;2023-11-18T10:23:23;7.20;64.00
41220;DHT22;26951;47.338;9.196;2023-11-18T10:26:09;7.30;65.60
41220;DHT22;26951;47.338;9.196;2023-11-18T10:28:53;7.30;62.90
41220;DHT22;26951;47.338;9.196;2023-11-18T10:31:42;7.40;61.20
41220;DHT22;26951;47.338;9.196;2023-11-18T10:34:29;7.40;61.80
41220;DHT22;26951;47.338;9.196;2023-11-18T10:37:13;7.50;60.80
41220;DHT22;26951;47.338;9.196;2023-11-18T10:39:57;7.50;58.80
41220;DHT22;26951;47.338;9.196;2023-11-18T10:42:42;7.40;58.40
41220;DHT22;26951;47.338;9.196;2023-11-18T10:45:32;7.40;55.60
41220;DHT22;26951;47.338;9.196;2023-11-18T10:48:16;7.40;54.90
41220;DHT22;26951;47.338;9.196;2023-11-18T10:51:04;7.40;55.70
41220;DHT22;26951;47.338;9.196;2023-11-18T10:53:54;7.40;56.10
41220;DHT22;26951;47.338;9.196;2023-11-18T10:56:49;7.40;57.20
41220;DHT22;26951;47.338;9.196;2023-11-18T10:59:33;7.50;57.80
41220;DHT22;26951;47.338;9.196;2023-11-18T11:02:18;7.50;60.60
41220;DHT22;26951;47.338;9.196;2023-11-18T11:05:05;7.50;61.80
41220;DHT22;26951;47.338;9.196;2023-11-18T11:08:00;7.50;62.00
41220;DHT22;26951;47.338;9.196;2023-11-18T11:10:46;7.50;61.80
41220;DHT22;26951;47.338;9.196;2023-11-18T11:13:34;7.50;61.80
41220;DHT22;26951;47.338;9.196;2023-11-18T11:16:26;7.50;61.70
41220;DHT22;26951;47.338;9.196;2023-11-18T11:19:24;7.50;61.70
41220;DHT22;26951;47.338;9.196;2023-11-18T11:22:10;7.60;61.90
41220;DHT22;26951;47.338;9.196;2023-11-18T11:25:15;7.60;62.50
41220;DHT22;26951;47.338;9.196;2023-11-18T11:31:12;7.60;60.80
41220;DHT22;26951;47.338;9.196;2023-11-18T11:34:03;7.50;58.70
41220;DHT22;26951;47.338;9.196;2023-11-18T11:36:51;7.50;56.90
41220;DHT22;26951;47.338;9.196;2023-11-18T11:39:38;7.50;53.60
41220;DHT22;26951;47.338;9.196;2023-11-18T11:42:32;7.50;52.00
41220;DHT22;26951;47.338;9.196;2023-11-18T11:45:16;7.50;52.80
41220;DHT22;26951;47.338;9.196;2023-11-18T11:48:07;7.50;53.50
41220;DHT22;26951;47.338;9.196;2023-11-18T11:51:22;7.50;52.30
41220;DHT22;26951;47.338;9.196;2023-11-18T11:57:04;7.50;51.90
41220;DHT22;26951;47.338;9.196;2023-11-18T12:02:37;7.50;56.70
41220;DHT22;26951;47.338;9.196;2023-11-18T12:05:25;7.50;55.60
41220;DHT22;26951;47.338;9.196;2023-11-18T12:08:10;7.50;56.80
41220;DHT22;26951;47.338;9.196;2023-11-18T12:10:57;7.50;56.70
41220;DHT22;26951;47.338;9.196;2023-11-18T12:14:03;7.50;57.70
41220;DHT22;26951;47.338;9.196;2023-11-18T12:17:03;7.50;57.60
41220;DHT22;26951;47.338;9.196;2023-11-18T12:19:55;7.40;58.50
41220;DHT22;26951;47.338;9.196;2023-11-18T12:23:04;7.40;58.40
41220;DHT22;26951;47.338;9.196;2023-11-18T12:25:58;7.50;58.70
41220;DHT22;26951;47.338;9.196;2023-11-18T12:28:42;7.50;58.60
41220;DHT22;26951;47.338;9.196;2023-11-18T12:31:41;7.40;58.60
41220;DHT22;26951;47.338;9.196;2023-11-18T12:34:49;7.50;58.00
41220;DHT22;26951;47.338;9.196;2023-11-18T12:40:54;7.50;56.10
41220;DHT22;26951;47.338;9.196;2023-11-18T12:43:48;7.40;55.80
41220;DHT22;26951;47.338;9.196;2023-11-18T12:46:46;7.40;56.70
41220;DHT22;26951;47.338;9.196;2023-11-18T12:49:37;7.40;57.40
41220;DHT22;26951;47.338;9.196;2023-11-18T12:52:25;7.40;56.80
41220;DHT22;26951;47.338;9.196;2023-11-18T12:55:16;7.40;56.20
41220;DHT22;26951;47.338;9.196;2023-11-18T12:58:02;7.40;56.40
41220;DHT22;26951;47.338;9.196;2023-11-18T13:00:49;7.40;56.80
41220;DHT22;26951;47.338;9.196;2023-11-18T13:03:33;7.40;56.50
41220;DHT22;26951;47.338;9.196;2023-11-18T13:06:18;7.40;56.90
41220;DHT22;26951;47.338;9.196;2023-11-18T13:09:02;7.30;57.00
41220;DHT22;26951;47.338;9.196;2023-11-18T13:11:58;7.30;57.20
41220;DHT22;26951;47.338;9.196;2023-11-18T13:14:43;7.30;57.70
41220;DHT22;26951;47.338;9.196;2023-11-18T13:17:27;7.20;57.90
41220;DHT22;26951;47.338;9.196;2023-11-18T13:20:13;7.20;57.40
41220;DHT22;26951;47.338;9.196;2023-11-18T13:22:58;7.20;57.80
41220;DHT22;26951;47.338;9.196;2023-11-18T13:25:42;7.20;58.90
41220;DHT22;26951;47.338;9.196;2023-11-18T13:28:27;7.10;59.10
41220;DHT22;26951;47.338;9.196;2023-11-18T13:31:11;7.10;58.70
41220;DHT22;26951;47.338;9.196;2023-11-18T13:34:00;7.10;59.30
41220;DHT22;26951;47.338;9.196;2023-11-18T13:36:46;7.10;60.90
41220;DHT22;26951;47.338;9.196;2023-11-18T13:39:31;7.10;59.70
41220;DHT22;26951;47.338;9.196;2023-11-18T13:42:20;7.10;59.80
41220;DHT22;26951;47.338;9.196;2023-11-18T13:45:08;7.00;59.50
41220;DHT22;26951;47.338;9.196;2023-11-18T13:47:56;7.00;58.60
41220;DHT22;26951;47.338;9.196;2023-11-18T13:50:42;6.90;58.10
41220;DHT22;26951;47.338;9.196;2023-11-18T13:53:27;6.90;57.50
41220;DHT22;26951;47.338;9.196;2023-11-18T13:56:11;6.80;58.80
41220;DHT22;26951;47.338;9.196;2023-11-18T13:58:56;6.80;59.00
41220;DHT22;26951;47.338;9.196;2023-11-18T14:01:42;6.70;59.20
41220;DHT22;26951;47.338;9.196;2023-11-18T14:04:30;6.70;60.10
41220;DHT22;26951;47.338;9.196;2023-11-18T14:07:17;6.60;58.90
41220;DHT22;26951;47.338;9.196;2023-11-18T14:10:01;6.60;59.10
41220;DHT22;26951;47.338;9.196;2023-11-18T14:13:04;6.60;59.90
41220;DHT22;26951;47.338;9.196;2023-11-18T14:15:49;6.50;59.60
41220;DHT22;26951;47.338;9.196;2023-11-18T14:18:39;6.40;57.00
41220;DHT22;26951;47.338;9.196;2023-11-18T14:21:25;6.30;55.70
41220;DHT22;26951;47.338;9.196;2023-11-18T14:24:09;6.30;55.60
41220;DHT22;26951;47.338;9.196;2023-11-18T14:26:55;6.20;56.00
41220;DHT22;26951;47.338;9.196;2023-11-18T14:29:40;6.20;54.80
41220;DHT22;26951;47.338;9.196;2023-11-18T14:32:24;6.10;55.10
41220;DHT22;26951;47.338;9.196;2023-11-18T14:35:08;6.10;55.50
41220;DHT22;26951;47.338;9.196;2023-11-18T14:37:55;6.00;56.40
41220;DHT22;26951;47.338;9.196;2023-11-18T14:40:39;6.00;56.00
41220;DHT22;26951;47.338;9.196;2023-11-18T14:43:24;5.90;56.00
41220;DHT22;26951;47.338;9.196;2023-11-18T14:46:08;5.90;56.10
41220;DHT22;26951;47.338;9.196;2023-11-18T14:48:52;5.90;56.60
41220;DHT22;26951;47.338;9.196;2023-11-18T14:51:37;5.80;55.70
41220;DHT22;26951;47.338;9.196;2023-11-18T14:54:21;5.80;55.20
41220;DHT22;26951;47.338;9.196;2023-11-18T14:57:05;5.70;56.20
41220;DHT22;26951;47.338;9.196;2023-11-18T14:59:49;5.60;55.90
41220;DHT22;26951;47.338;9.196;2023-11-18T15:02:33;5.60;56.40
41220;DHT22;26951;47.338;9.196;2023-11-18T15:05:19;5.50;57.10
41220;DHT22;26951;47.338;9.196;2023-11-18T15:08:04;5.50;57.20
41220;DHT22;26951;47.338;9.196;2023-11-18T15:10:53;5.50;57.70
41220;DHT22;26951;47.338;9.196;2023-11-18T15:13:37;5.50;57.80
41220;DHT22;26951;47.338;9.196;2023-11-18T15:16:21;5.50;58.60
41220;DHT22;26951;47.338;9.196;2023-11-18T15:19:06;5.40;56.90
41220;DHT22;26951;47.338;9.196;2023-11-18T15:21:51;5.30;58.40
41220;DHT22;26951;47.338;9.196;2023-11-18T15:24:36;5.30;57.40
41220;DHT22;26951;47.338;9.196;2023-11-18T15:27:20;5.30;57.00
41220;DHT22;26951;47.338;9.196;2023-11-18T15:30:07;5.30;58.20
41220;DHT22;26951;47.338;9.196;2023-11-18T15:32:54;5.30;58.00
41220;DHT22;26951;47.338;9.196;2023-11-18T15:35:39;5.30;58.20
41220;DHT22;26951;47.338;9.196;2023-11-18T15:38:25;5.30;58.30
41220;DHT22;26951;47.338;9.196;2023-11-18T15:41:09;5.30;58.80
41220;DHT22;26951;47.338;9.196;2023-11-18T15:43:55;5.30;59.10
41220;DHT22;26951;47.338;9.196;2023-11-18T15:46:39;5.30;59.60
41220;DHT22;26951;47.338;9.196;2023-11-18T15:49:23;5.30;60.00
41220;DHT22;26951;47.338;9.196;2023-11-18T15:52:08;5.30;60.10
41220;DHT22;26951;47.338;9.196;2023-11-18T15:54:54;5.30;60.30
41220;DHT22;26951;47.338;9.196;2023-11-18T15:57:42;5.30;60.50
41220;DHT22;26951;47.338;9.196;2023-11-18T16:00:27;5.30;61.00
41220;DHT22;26951;47.338;9.196;2023-11-18T16:03:12;5.20;61.90
41220;DHT22;26951;47.338;9.196;2023-11-18T16:05:57;5.20;62.00
41220;DHT22;26951;47.338;9.196;2023-11-18T16:08:41;5.20;61.90
41220;DHT22;26951;47.338;9.196;2023-11-18T16:11:25;5.20;61.50
41220;DHT22;26951;47.338;9.196;2023-11-18T16:14:10;5.20;62.30
41220;DHT22;26951;47.338;9.196;2023-11-18T16:16:54;5.20;62.90
41220;DHT22;26951;47.338;9.196;2023-11-18T16:19:38;5.10;63.20
41220;DHT22;26951;47.338;9.196;2023-11-18T16:22:23;5.10;63.50
41220;DHT22;26951;47.338;9.196;2023-11-18T16:25:08;5.10;64.20
41220;DHT22;26951;47.338;9.196;2023-11-18T16:27:54;5.10;64.40
41220;DHT22;26951;47.338;9.196;2023-11-18T16:30:39;5.10;64.70
41220;DHT22;26951;47.338;9.196;2023-11-18T16:33:23;5.10;65.10
41220;DHT22;26951;47.338;9.196;2023-11-18T16:36:10;5.00;65.40
41220;DHT22;26951;47.338;9.196;2023-11-18T16:39:03;5.00;65.70
41220;DHT22;26951;47.338;9.196;2023-11-18T16:41:47;5.00;65.70
41220;DHT22;26951;47.338;9.196;2023-11-18T16:44:31;5.00;65.20
41220;DHT22;26951;47.338;9.196;2023-11-18T16:47:16;5.00;65.90
41220;DHT22;26951;47.338;9.196;2023-11-18T16:50:00;5.00;66.50
41220;DHT22;26951;47.338;9.196;2023-11-18T16:52:44;5.00;66.90
41220;DHT22;26951;47.338;9.196;2023-11-18T16:55:28;5.00;67.00
41220;DHT22;26951;47.338;9.196;2023-11-18T16:58:12;5.10;66.90
41220;DHT22;26951;47.338;9.196;2023-11-18T17:00:57;5.10;66.60
41220;DHT22;26951;47.338;9.196;2023-11-18T17:03:41;5.00;66.60
41220;DHT22;26951;47.338;9.196;2023-11-18T17:06:25;5.00;67.50
41220;DHT22;26951;47.338;9.196;2023-11-18T17:09:09;5.00;68.00
41220;DHT22;26951;47.338;9.196;2023-11-18T17:11:53;5.00;68.50
41220;DHT22;26951;47.338;9.196;2023-11-18T17:14:37;5.00;68.30
41220;DHT22;26951;47.338;9.196;2023-11-18T17:17:21;5.10;69.20
41220;DHT22;26951;47.338;9.196;2023-11-18T17:20:06;5.00;68.70
41220;DHT22;26951;47.338;9.196;2023-11-18T17:22:53;5.00;69.10
41220;DHT22;26951;47.338;9.196;2023-11-18T17:25:38;5.00;69.40
41220;DHT22;26951;47.338;9.196;2023-11-18T17:28:22;5.00;69.80
41220;DHT22;26951;47.338;9.196;2023-11-18T17:31:06;5.10;69.80
41220;DHT22;26951;47.338;9.196;2023-11-18T17:33:50;5.10;70.50
41220;DHT22;26951;47.338;9.196;2023-11-18T17:36:35;5.00;70.70
41220;DHT22;26951;47.338;9.196;2023-11-18T17:39:20;5.00;70.60
41220;DHT22;26951;47.338;9.196;2023-11-18T17:42:05;5.10;71.10
41220;DHT22;26951;47.338;9.196;2023-11-18T17:44:49;5.10;71.20
41220;DHT22;26951;47.338;9.196;2023-11-18T17:47:33;5.10;71.30
41220;DHT22;26951;47.338;9.196;2023-11-18T17:50:25;5.10;72.30
41220;DHT22;26951;47.338;9.196;2023-11-18T17:53:10;5.10;72.60
41220;DHT22;26951;47.338;9.196;2023-11-18T17:55:55;5.10;72.50
41220;DHT22;26951;47.338;9.196;2023-11-18T17:58:39;5.10;72.40
41220;DHT22;26951;47.338;9.196;2023-11-18T18:01:24;5.10;72.20
41220;DHT22;26951;47.338;9.196;2023-11-18T18:04:09;5.10;72.50
41220;DHT22;26951;47.338;9.196;2023-11-18T18:06:54;5.20;72.30
41220;DHT22;26951;47.338;9.196;2023-11-18T18:09:39;5.20;72.30